Aérodrome :
LOGIN :

S'inscrire | Disclaimer

   EN    FR    IT 

 










Légende :    VFR   VFR Marginal   IFR   IFR Intensif   IFR Très Intensif
Visi : 
Plafond : 
>= 8 km
>= 3000ft
5 à 8 km
1000 à 3000 ft
1500m à 5 km
500 à 1000 ft
800 à 1500m
200 à 500 ft
< 800m
< 200 ft
Symboles :   Orages  Brouillard  Fortes neiges  Fortes précipitations  Vent > 20 kt
SIGMETs :   Divers  Orages  Givrage  Turbulence  Onde Orograph.  Cendres Volcan.







- Altitude de l'aérodrome : 16 ft
- Code IATA : EAS


LESO - San Sebastian Fuenterrabia

DERNIER METAR :
  • 131500Z 05007KT 9999 BKN024 16/12 Q1026

METARs EXPIRÉS :
  • 131430Z 05007KT 010V070 9999 BKN024 16/12 Q1026
  • 131400Z 06005KT 9999 BKN024 16/12 Q1026
  • 131330Z 06005KT 9999 BKN024 16/12 Q1026
  • 131300Z 07005KT 9999 SCT024 BKN028 16/13 Q1026
  • 131230Z 09006KT 060V140 9999 SCT022 BKN028 15/12 Q1027

TAF TAF LESO
Valide du 13 à 12h jusqu'au 14 à 12h UTC


131100Z 1312/1412 03008KT 9999 SCT030 TX17/1412Z TN10/1406Z
Pas de NOTAMs connus pour ce terrain.



MET'MAP, la Météo Aéronautique d'un coup d'oeil ! - Copyright ORBIFLY Décembre 2007 - Disclaimer

ORBIFLY MET'MAP TEAM :

Programmation & Développement : Alexandra Zaïnal
Conception & Développement : Baudouin d'Aumeries
Co-Programmation & Développement : Marc-Olivier Méhu
Soutien technique & logistique : Manuel Goepfert

Contact : metmap@orbifly.com




SOURCES & CREDITS :

   NOAA